sensor_id;sensor_type;location;lat;lon;timestamp;pressure;altitude;pressure_sealevel;temperature;humidity
76632;BME280;65526;48.578;-4.520;2023-03-26T00:01:29;99298.91;;;4.98;85.41
76632;BME280;65526;48.578;-4.520;2023-03-26T00:03:58;99653.38;;;6.84;85.69
76632;BME280;65526;48.578;-4.520;2023-03-26T00:06:30;99222.19;;;4.20;85.59
76632;BME280;65526;48.578;-4.520;2023-03-26T00:08:57;100116.31;;;9.92;85.90
76632;BME280;65526;48.578;-4.520;2023-03-26T00:11:25;99324.47;;;4.99;85.86
76632;BME280;65526;48.578;-4.520;2023-03-26T00:13:52;99683.91;;;7.46;86.06
76632;BME280;65526;48.578;-4.520;2023-03-26T00:16:23;99514.78;;;6.22;85.47
76632;BME280;65526;48.578;-4.520;2023-03-26T00:18:49;99561.25;;;6.76;86.43
76632;BME280;65526;48.578;-4.520;2023-03-26T00:21:19;99828.97;;;8.08;86.38
76632;BME280;65526;48.578;-4.520;2023-03-26T00:23:47;99856.69;;;8.55;86.65
76632;BME280;65526;48.578;-4.520;2023-03-26T00:26:15;99257.50;;;4.95;86.42
76632;BME280;65526;48.578;-4.520;2023-03-26T00:28:42;99572.00;;;6.81;86.35
76632;BME280;65526;48.578;-4.520;2023-03-26T00:31:11;99357.06;;;5.49;86.57
76632;BME280;65526;48.578;-4.520;2023-03-26T00:33:39;99548.16;;;6.89;86.89
76632;BME280;65526;48.578;-4.520;2023-03-26T00:36:09;99774.34;;;8.21;86.89
76632;BME280;65526;48.578;-4.520;2023-03-26T00:38:36;99763.72;;;8.07;87.22
76632;BME280;65526;48.578;-4.520;2023-03-26T00:41:05;99704.34;;;7.89;87.14
76632;BME280;65526;48.578;-4.520;2023-03-26T00:43:33;99765.03;;;8.29;87.36
76632;BME280;65526;48.578;-4.520;2023-03-26T00:46:00;99788.47;;;8.31;87.25
76632;BME280;65526;48.578;-4.520;2023-03-26T00:48:27;99724.44;;;8.17;87.15
76632;BME280;65526;48.578;-4.520;2023-03-26T00:50:55;99494.31;;;6.23;86.38
76632;BME280;65526;48.578;-4.520;2023-03-26T00:53:22;99820.63;;;8.36;85.98
76632;BME280;65526;48.578;-4.520;2023-03-26T00:55:49;99844.78;;;8.23;85.19
76632;BME280;65526;48.578;-4.520;2023-03-26T00:58:16;99646.03;;;7.03;85.34
76632;BME280;65526;48.578;-4.520;2023-03-26T01:00:51;99379.47;;;5.75;84.81
76632;BME280;65526;48.578;-4.520;2023-03-26T01:03:18;100165.75;;;10.03;85.86
76632;BME280;65526;48.578;-4.520;2023-03-26T01:05:48;99614.56;;;6.64;85.55
76632;BME280;65526;48.578;-4.520;2023-03-26T01:08:33;100042.50;;;9.72;86.17
76632;BME280;65526;48.578;-4.520;2023-03-26T01:11:19;99823.38;;;8.20;86.16
76632;BME280;65526;48.578;-4.520;2023-03-26T01:14:22;99212.41;;;4.59;86.10
76632;BME280;65526;48.578;-4.520;2023-03-26T01:16:52;99475.91;;;6.00;86.49
76632;BME280;65526;48.578;-4.520;2023-03-26T01:19:27;100063.50;;;9.89;86.54
76632;BME280;65526;48.578;-4.520;2023-03-26T01:21:57;100094.41;;;9.87;86.67
76632;BME280;65526;48.578;-4.520;2023-03-26T01:24:24;99533.66;;;6.48;86.45
76632;BME280;65526;48.578;-4.520;2023-03-26T01:27:08;100101.28;;;9.93;86.48
76632;BME280;65526;48.578;-4.520;2023-03-26T01:37:46;100038.41;;;10.01;87.44
76632;BME280;65526;48.578;-4.520;2023-03-26T01:45:20;99852.72;;;8.09;83.57
76632;BME280;65526;48.578;-4.520;2023-03-26T01:47:49;99956.25;;;8.64;83.56
76632;BME280;65526;48.578;-4.520;2023-03-26T01:50:15;100148.31;;;9.55;84.37
76632;BME280;65526;48.578;-4.520;2023-03-26T01:52:42;100040.66;;;9.45;84.50
76632;BME280;65526;48.578;-4.520;2023-03-26T01:55:09;99737.06;;;7.12;84.31
76632;BME280;65526;48.578;-4.520;2023-03-26T01:58:06;99784.38;;;7.10;85.13
76632;BME280;65526;48.578;-4.520;2023-03-26T02:00:41;100052.63;;;9.18;85.13
76632;BME280;65526;48.578;-4.520;2023-03-26T02:03:24;99270.53;;;4.33;84.96
76632;BME280;65526;48.578;-4.520;2023-03-26T02:06:14;100034.38;;;9.17;86.04
76632;BME280;65526;48.578;-4.520;2023-03-26T02:08:51;99656.69;;;6.49;85.44
76632;BME280;65526;48.578;-4.520;2023-03-26T02:11:19;99478.41;;;5.65;85.18
76632;BME280;65526;48.578;-4.520;2023-03-26T02:13:45;99360.16;;;4.95;85.34
76632;BME280;65526;48.578;-4.520;2023-03-26T02:16:14;99294.84;;;4.56;85.40
76632;BME280;65526;48.578;-4.520;2023-03-26T02:18:45;99722.50;;;7.27;85.97
76632;BME280;65526;48.578;-4.520;2023-03-26T02:21:14;99186.34;;;3.92;85.93
76632;BME280;65526;48.578;-4.520;2023-03-26T02:23:48;99749.88;;;7.32;86.60
76632;BME280;65526;48.578;-4.520;2023-03-26T02:26:18;99820.31;;;7.38;86.56
76632;BME280;65526;48.578;-4.520;2023-03-26T02:29:04;99248.91;;;4.44;86.49
76632;BME280;65526;48.578;-4.520;2023-03-26T02:31:32;99805.22;;;7.36;87.13
76632;BME280;65526;48.578;-4.520;2023-03-26T02:33:59;99566.34;;;5.94;87.11
76632;BME280;65526;48.578;-4.520;2023-03-26T02:36:28;99944.00;;;8.65;87.31
76632;BME280;65526;48.578;-4.520;2023-03-26T02:38:58;99499.03;;;5.83;87.15
76632;BME280;65526;48.578;-4.520;2023-03-26T02:41:26;99804.75;;;7.74;87.50
76632;BME280;65526;48.578;-4.520;2023-03-26T02:43:58;99148.00;;;3.84;86.78
76632;BME280;65526;48.578;-4.520;2023-03-26T02:46:42;99462.41;;;5.70;87.64
76632;BME280;65526;48.578;-4.520;2023-03-26T02:49:40;99274.00;;;4.43;87.24
76632;BME280;65526;48.578;-4.520;2023-03-26T02:52:07;99551.06;;;5.84;87.69
76632;BME280;65526;48.578;-4.520;2023-03-26T02:54:35;99680.06;;;7.07;87.93
76632;BME280;65526;48.578;-4.520;2023-03-26T02:57:13;99307.56;;;4.36;87.67
76632;BME280;65526;48.578;-4.520;2023-03-26T02:59:57;99719.56;;;7.08;88.27
76632;BME280;65526;48.578;-4.520;2023-03-26T03:02:36;99646.13;;;6.51;87.98
76632;BME280;65526;48.578;-4.520;2023-03-26T03:05:32;99683.34;;;7.25;88.41
76632;BME280;65526;48.578;-4.520;2023-03-26T03:08:27;99733.16;;;7.29;88.38
76632;BME280;65526;48.578;-4.520;2023-03-26T03:11:26;99327.09;;;5.07;88.09
76632;BME280;65526;48.578;-4.520;2023-03-26T03:14:06;99718.91;;;7.27;88.11
76632;BME280;65526;48.578;-4.520;2023-03-26T03:16:34;99693.88;;;7.35;88.03
76632;BME280;65526;48.578;-4.520;2023-03-26T03:19:07;99110.69;;;3.83;87.87
76632;BME280;65526;48.578;-4.520;2023-03-26T03:21:40;99119.38;;;3.85;87.87
76632;BME280;65526;48.578;-4.520;2023-03-26T03:24:08;99619.56;;;7.02;87.93
76632;BME280;65526;48.578;-4.520;2023-03-26T03:26:39;99135.75;;;3.93;87.76
76632;BME280;65526;48.578;-4.520;2023-03-26T03:29:31;99594.41;;;6.92;88.05
76632;BME280;65526;48.578;-4.520;2023-03-26T03:32:10;99806.47;;;8.10;88.15
76632;BME280;65526;48.578;-4.520;2023-03-26T03:34:43;99385.78;;;5.76;87.97
76632;BME280;65526;48.578;-4.520;2023-03-26T03:37:10;99115.09;;;4.12;87.72
76632;BME280;65526;48.578;-4.520;2023-03-26T03:39:49;99549.88;;;6.93;88.20
76632;BME280;65526;48.578;-4.520;2023-03-26T03:42:18;99968.47;;;9.41;88.93
76632;BME280;65526;48.578;-4.520;2023-03-26T03:44:45;99920.41;;;9.02;88.07
76632;BME280;65526;48.578;-4.520;2023-03-26T03:47:32;98916.69;;;2.77;87.97
76632;BME280;65526;48.578;-4.520;2023-03-26T03:49:58;99630.56;;;7.30;87.29
76632;BME280;65526;48.578;-4.520;2023-03-26T03:52:28;99156.47;;;4.03;84.98
76632;BME280;65526;48.578;-4.520;2023-03-26T03:54:55;99144.34;;;3.43;85.65
76632;BME280;65526;48.578;-4.520;2023-03-26T03:57:42;99415.84;;;5.81;86.39
76632;BME280;65526;48.578;-4.520;2023-03-26T04:00:14;99347.94;;;5.21;86.54
76632;BME280;65526;48.578;-4.520;2023-03-26T04:02:49;99213.38;;;4.15;86.51
76632;BME280;65526;48.578;-4.520;2023-03-26T04:05:20;99641.78;;;6.78;87.21
76632;BME280;65526;48.578;-4.520;2023-03-26T04:07:49;99986.34;;;8.65;87.35
76632;BME280;65526;48.578;-4.520;2023-03-26T04:10:15;99693.59;;;7.25;87.33
76632;BME280;65526;48.578;-4.520;2023-03-26T04:13:00;99006.06;;;2.78;86.85
76632;BME280;65526;48.578;-4.520;2023-03-26T04:15:45;99751.41;;;6.78;87.52
76632;BME280;65526;48.578;-4.520;2023-03-26T04:18:12;99742.50;;;6.96;87.58
76632;BME280;65526;48.578;-4.520;2023-03-26T04:20:43;99253.16;;;4.17;87.30
76632;BME280;65526;48.578;-4.520;2023-03-26T04:23:17;99413.59;;;5.06;87.37
76632;BME280;65526;48.578;-4.520;2023-03-26T04:25:50;99638.47;;;6.72;87.58
76632;BME280;65526;48.578;-4.520;2023-03-26T04:28:33;99006.31;;;2.73;87.11
76632;BME280;65526;48.578;-4.520;2023-03-26T04:31:17;99686.63;;;6.75;87.75
76632;BME280;65526;48.578;-4.520;2023-03-26T04:33:50;99617.38;;;6.52;88.17
76632;BME280;65526;48.578;-4.520;2023-03-26T04:36:24;99223.47;;;4.11;87.06
76632;BME280;65526;48.578;-4.520;2023-03-26T04:38:56;99426.56;;;5.06;87.02
76632;BME280;65526;48.578;-4.520;2023-03-26T04:41:47;99993.19;;;8.40;87.90
76632;BME280;65526;48.578;-4.520;2023-03-26T04:44:17;99699.84;;;6.29;87.38
76632;BME280;65526;48.578;-4.520;2023-03-26T04:47:01;99685.69;;;6.43;88.63
76632;BME280;65526;48.578;-4.520;2023-03-26T04:49:43;99785.38;;;6.17;88.82
76632;BME280;65526;48.578;-4.520;2023-03-26T04:52:12;99219.81;;;2.84;88.79
76632;BME280;65526;48.578;-4.520;2023-03-26T04:54:58;99650.88;;;5.78;87.33
76632;BME280;65526;48.578;-4.520;2023-03-26T04:57:34;99944.59;;;7.87;86.60
76632;BME280;65526;48.578;-4.520;2023-03-26T05:00:12;99417.28;;;4.74;86.38
76632;BME280;65526;48.578;-4.520;2023-03-26T05:02:51;99133.66;;;2.85;86.77
76632;BME280;65526;48.578;-4.520;2023-03-26T05:05:22;99647.31;;;6.38;87.35
76632;BME280;65526;48.578;-4.520;2023-03-26T05:07:50;99367.84;;;4.41;87.30
76632;BME280;65526;48.578;-4.520;2023-03-26T05:10:19;98941.53;;;1.70;87.17
76632;BME280;65526;48.578;-4.520;2023-03-26T05:12:50;99504.94;;;5.45;87.58
76632;BME280;65526;48.578;-4.520;2023-03-26T05:15:21;99128.50;;;2.83;87.39
76632;BME280;65526;48.578;-4.520;2023-03-26T05:17:56;98965.66;;;2.10;87.36
76632;BME280;65526;48.578;-4.520;2023-03-26T05:20:45;99196.94;;;3.45;87.67
76632;BME280;65526;48.578;-4.520;2023-03-26T05:23:12;99592.53;;;6.12;87.97
76632;BME280;65526;48.578;-4.520;2023-03-26T05:25:41;99393.66;;;4.73;87.81
76632;BME280;65526;48.578;-4.520;2023-03-26T05:28:15;99359.03;;;4.60;87.65
76632;BME280;65526;48.578;-4.520;2023-03-26T05:30:54;99986.69;;;8.08;88.40
76632;BME280;65526;48.578;-4.520;2023-03-26T05:33:23;99694.00;;;6.31;87.84
76632;BME280;65526;48.578;-4.520;2023-03-26T05:36:06;99315.81;;;4.36;88.31
76632;BME280;65526;48.578;-4.520;2023-03-26T05:38:34;99904.59;;;8.12;88.71
76632;BME280;65526;48.578;-4.520;2023-03-26T05:41:05;99570.94;;;6.02;88.74
76632;BME280;65526;48.578;-4.520;2023-03-26T05:43:34;99152.97;;;3.21;88.65
76632;BME280;65526;48.578;-4.520;2023-03-26T05:46:28;99792.75;;;7.54;89.22
76632;BME280;65526;48.578;-4.520;2023-03-26T05:48:54;99417.75;;;4.88;89.11
76632;BME280;65526;48.578;-4.520;2023-03-26T05:51:21;99090.50;;;3.18;88.52
76632;BME280;65526;48.578;-4.520;2023-03-26T05:54:00;99001.13;;;2.60;88.79
76632;BME280;65526;48.578;-4.520;2023-03-26T05:56:56;99388.59;;;5.11;88.96
76632;BME280;65526;48.578;-4.520;2023-03-26T05:59:41;99455.47;;;5.12;89.04
76632;BME280;65526;48.578;-4.520;2023-03-26T06:02:27;99709.47;;;6.60;88.76
76632;BME280;65526;48.578;-4.520;2023-03-26T06:05:13;99390.41;;;5.19;88.34
76632;BME280;65526;48.578;-4.520;2023-03-26T06:08:02;99728.22;;;6.66;87.97
76632;BME280;65526;48.578;-4.520;2023-03-26T06:10:39;99993.28;;;8.44;88.46
76632;BME280;65526;48.578;-4.520;2023-03-26T06:13:05;99929.84;;;8.39;88.11
76632;BME280;65526;48.578;-4.520;2023-03-26T06:15:34;99744.53;;;6.71;88.04
76632;BME280;65526;48.578;-4.520;2023-03-26T06:18:07;99573.34;;;6.04;88.24
76632;BME280;65526;48.578;-4.520;2023-03-26T06:20:34;99756.56;;;6.91;88.19
76632;BME280;65526;48.578;-4.520;2023-03-26T06:23:06;99407.66;;;5.04;88.30
76632;BME280;65526;48.578;-4.520;2023-03-26T06:26:02;99043.09;;;2.72;87.78
76632;BME280;65526;48.578;-4.520;2023-03-26T06:29:00;99665.25;;;6.20;88.48
76632;BME280;65526;48.578;-4.520;2023-03-26T06:31:47;100004.63;;;8.39;88.97
76632;BME280;65526;48.578;-4.520;2023-03-26T06:34:23;99475.31;;;5.05;88.67
76632;BME280;65526;48.578;-4.520;2023-03-26T06:36:49;99999.06;;;8.39;88.56
76632;BME280;65526;48.578;-4.520;2023-03-26T06:39:19;99496.66;;;5.57;88.41
76632;BME280;65526;48.578;-4.520;2023-03-26T06:42:10;99199.50;;;3.63;88.24
76632;BME280;65526;48.578;-4.520;2023-03-26T06:45:09;99683.03;;;6.47;88.41
76632;BME280;65526;48.578;-4.520;2023-03-26T06:47:54;99661.91;;;6.14;88.30
76632;BME280;65526;48.578;-4.520;2023-03-26T06:50:56;99049.41;;;2.85;88.11
76632;BME280;65526;48.578;-4.520;2023-03-26T06:53:42;99553.78;;;6.09;88.72
76632;BME280;65526;48.578;-4.520;2023-03-26T06:56:16;99574.81;;;6.13;88.71
76632;BME280;65526;48.578;-4.520;2023-03-26T06:59:03;99377.34;;;4.92;88.44
76632;BME280;65526;48.578;-4.520;2023-03-26T07:01:48;99097.47;;;2.70;88.41
76632;BME280;65526;48.578;-4.520;2023-03-26T07:04:33;99349.03;;;4.79;88.50
76632;BME280;65526;48.578;-4.520;2023-03-26T07:07:22;99591.72;;;6.12;89.13
76632;BME280;65526;48.578;-4.520;2023-03-26T07:10:10;99328.19;;;4.91;88.94
76632;BME280;65526;48.578;-4.520;2023-03-26T07:12:52;99358.34;;;4.63;88.99
76632;BME280;65526;48.578;-4.520;2023-03-26T07:15:36;99670.47;;;7.17;89.09
76632;BME280;65526;48.578;-4.520;2023-03-26T07:18:21;99658.03;;;6.95;89.10
76632;BME280;65526;48.578;-4.520;2023-03-26T07:20:49;99942.03;;;9.12;88.92
76632;BME280;65526;48.578;-4.520;2023-03-26T07:23:18;99945.31;;;9.18;89.00
76632;BME280;65526;48.578;-4.520;2023-03-26T07:29:25;99941.72;;;9.33;88.77
76632;BME280;65526;48.578;-4.520;2023-03-26T07:32:30;99395.06;;;5.83;88.22
76632;BME280;65526;48.578;-4.520;2023-03-26T07:35:25;99649.22;;;7.49;88.42
76632;BME280;65526;48.578;-4.520;2023-03-26T07:47:57;99986.28;;;9.75;88.40
76632;BME280;65526;48.578;-4.520;2023-03-26T07:50:42;99117.09;;;4.51;87.85
76632;BME280;65526;48.578;-4.520;2023-03-26T07:53:20;99463.06;;;6.63;88.07
76632;BME280;65526;48.578;-4.520;2023-03-26T07:56:25;99501.63;;;6.59;87.99
76632;BME280;65526;48.578;-4.520;2023-03-26T07:59:30;99714.25;;;7.90;87.96
76632;BME280;65526;48.578;-4.520;2023-03-26T08:02:33;99959.06;;;9.81;88.11
76632;BME280;65526;48.578;-4.520;2023-03-26T08:05:45;99650.41;;;7.79;87.54
76632;BME280;65526;48.578;-4.520;2023-03-26T08:09:27;99939.66;;;9.30;87.66
76632;BME280;65526;48.578;-4.520;2023-03-26T08:20:01;99218.84;;;4.39;87.64
76632;BME280;65526;48.578;-4.520;2023-03-26T08:22:42;99775.47;;;7.88;88.17
76632;BME280;65526;48.578;-4.520;2023-03-26T08:25:26;99984.03;;;9.46;88.39
76632;BME280;65526;48.578;-4.520;2023-03-26T08:28:16;99994.66;;;9.44;88.15
76632;BME280;65526;48.578;-4.520;2023-03-26T08:30:46;99758.84;;;7.57;88.41
76632;BME280;65526;48.578;-4.520;2023-03-26T08:33:18;99512.16;;;6.42;88.28
76632;BME280;65526;48.578;-4.520;2023-03-26T08:35:46;99714.41;;;7.50;88.31
76632;BME280;65526;48.578;-4.520;2023-03-26T08:38:16;99489.47;;;6.32;88.36
76632;BME280;65526;48.578;-4.520;2023-03-26T08:55:29;100008.91;;;9.77;86.12
76632;BME280;65526;48.578;-4.520;2023-03-26T09:00:52;99991.38;;;9.73;86.35
76632;BME280;65526;48.578;-4.520;2023-03-26T09:03:51;99753.66;;;8.15;85.93
76632;BME280;65526;48.578;-4.520;2023-03-26T09:06:42;100022.09;;;10.00;86.74
76632;BME280;65526;48.578;-4.520;2023-03-26T09:15:42;100027.47;;;10.08;85.22
76632;BME280;65526;48.578;-4.520;2023-03-26T09:24:30;99423.47;;;6.27;85.22
76632;BME280;65526;48.578;-4.520;2023-03-26T09:38:41;99792.63;;;8.88;85.90
76632;BME280;65526;48.578;-4.520;2023-03-26T09:41:29;99543.19;;;7.10;84.21
76632;BME280;65526;48.578;-4.520;2023-03-26T09:44:13;99926.59;;;9.66;83.91
76632;BME280;65526;48.578;-4.520;2023-03-26T09:53:00;100101.97;;;10.80;81.82
76632;BME280;65526;48.578;-4.520;2023-03-26T09:57:55;99968.41;;;9.92;82.28
76632;BME280;65526;48.578;-4.520;2023-03-26T10:00:40;100118.66;;;10.99;82.96
76632;BME280;65526;48.578;-4.520;2023-03-26T10:08:15;100121.56;;;11.06;81.01
76632;BME280;65526;48.578;-4.520;2023-03-26T10:18:45;100148.31;;;11.33;81.92
76632;BME280;65526;48.578;-4.520;2023-03-26T10:21:44;100161.81;;;11.31;77.46
76632;BME280;65526;48.578;-4.520;2023-03-26T10:27:17;100181.06;;;11.21;78.34
76632;BME280;65526;48.578;-4.520;2023-03-26T10:33:21;100220.50;;;11.26;78.21
76632;BME280;65526;48.578;-4.520;2023-03-26T10:35:58;100206.09;;;11.21;77.31
76632;BME280;65526;48.578;-4.520;2023-03-26T10:41:55;100105.06;;;10.55;79.71
76632;BME280;65526;48.578;-4.520;2023-03-26T10:50:19;99739.19;;;8.37;79.10
76632;BME280;65526;48.578;-4.520;2023-03-26T10:52:55;99902.66;;;9.23;79.93
76632;BME280;65526;48.578;-4.520;2023-03-26T10:55:33;99565.41;;;7.29;77.98
76632;BME280;65526;48.578;-4.520;2023-03-26T10:58:27;99793.00;;;8.71;77.86
76632;BME280;65526;48.578;-4.520;2023-03-26T11:01:10;99374.66;;;6.00;77.95
76632;BME280;65526;48.578;-4.520;2023-03-26T11:03:45;100016.91;;;9.63;77.42
76632;BME280;65526;48.578;-4.520;2023-03-26T11:12:13;100327.78;;;11.81;78.33
76632;BME280;65526;48.578;-4.520;2023-03-26T11:20:34;100332.59;;;12.04;77.52
76632;BME280;65526;48.578;-4.520;2023-03-26T11:26:15;99573.75;;;7.01;76.56
76632;BME280;65526;48.578;-4.520;2023-03-26T11:29:05;99915.75;;;8.91;75.90
76632;BME280;65526;48.578;-4.520;2023-03-26T11:32:02;100411.59;;;11.96;76.98
76632;BME280;65526;48.578;-4.520;2023-03-26T11:34:31;99656.44;;;7.38;74.97
76632;BME280;65526;48.578;-4.520;2023-03-26T11:37:02;100070.34;;;9.44;76.41
76632;BME280;65526;48.578;-4.520;2023-03-26T11:39:39;100436.38;;;12.01;76.43
76632;BME280;65526;48.578;-4.520;2023-03-26T11:42:11;99917.38;;;8.76;76.07
76632;BME280;65526;48.578;-4.520;2023-03-26T11:44:54;100401.63;;;12.14;78.52
76632;BME280;65526;48.578;-4.520;2023-03-26T11:47:33;99955.44;;;9.10;76.67
76632;BME280;65526;48.578;-4.520;2023-03-26T11:50:02;99940.81;;;8.94;76.36
76632;BME280;65526;48.578;-4.520;2023-03-26T11:52:32;99655.50;;;7.18;77.08
76632;BME280;65526;48.578;-4.520;2023-03-26T11:54:58;100215.78;;;10.38;78.09
76632;BME280;65526;48.578;-4.520;2023-03-26T11:57:28;100069.59;;;9.79;78.30
76632;BME280;65526;48.578;-4.520;2023-03-26T12:00:04;99788.25;;;7.93;78.08
76632;BME280;65526;48.578;-4.520;2023-03-26T12:02:44;99745.44;;;7.43;77.65
76632;BME280;65526;48.578;-4.520;2023-03-26T12:05:18;100476.63;;;12.22;78.94
76632;BME280;65526;48.578;-4.520;2023-03-26T12:07:55;100206.03;;;10.44;79.01
76632;BME280;65526;48.578;-4.520;2023-03-26T12:10:36;99967.25;;;8.92;76.86
76632;BME280;65526;48.578;-4.520;2023-03-26T12:16:14;100198.84;;;10.43;78.25
76632;BME280;65526;48.578;-4.520;2023-03-26T12:18:42;99804.41;;;7.47;77.38
76632;BME280;65526;48.578;-4.520;2023-03-26T12:21:18;100097.44;;;9.20;77.80
76632;BME280;65526;48.578;-4.520;2023-03-26T12:23:58;100538.94;;;12.34;77.04
76632;BME280;65526;48.578;-4.520;2023-03-26T12:29:20;99780.91;;;7.41;76.80
76632;BME280;65526;48.578;-4.520;2023-03-26T12:31:56;99700.19;;;6.92;77.45
76632;BME280;65526;48.578;-4.520;2023-03-26T12:34:31;100376.66;;;10.74;76.37
76632;BME280;65526;48.578;-4.520;2023-03-26T12:37:03;99736.94;;;7.08;76.57
76632;BME280;65526;48.578;-4.520;2023-03-26T12:39:36;100475.66;;;11.61;77.73
76632;BME280;65526;48.578;-4.520;2023-03-26T12:42:24;100221.16;;;9.99;77.84
76632;BME280;65526;48.578;-4.520;2023-03-26T12:44:52;100268.09;;;10.04;77.74
76632;BME280;65526;48.578;-4.520;2023-03-26T12:47:26;99793.03;;;6.97;77.81
76632;BME280;65526;48.578;-4.520;2023-03-26T12:49:56;99762.72;;;7.12;76.58
76632;BME280;65526;48.578;-4.520;2023-03-26T12:57:35;100353.41;;;10.66;77.03
76632;BME280;65526;48.578;-4.520;2023-03-26T13:03:14;100639.31;;;12.18;76.53
76632;BME280;65526;48.578;-4.520;2023-03-26T13:05:57;100651.00;;;12.23;78.20
76632;BME280;65526;48.578;-4.520;2023-03-26T13:09:04;99926.97;;;7.79;77.42
76632;BME280;65526;48.578;-4.520;2023-03-26T13:11:38;100658.66;;;12.46;78.27
76632;BME280;65526;48.578;-4.520;2023-03-26T13:17:22;100680.06;;;12.42;77.06
76632;BME280;65526;48.578;-4.520;2023-03-26T13:25:22;100692.69;;;12.20;79.38
76632;BME280;65526;48.578;-4.520;2023-03-26T13:28:16;100701.25;;;12.11;79.21
76632;BME280;65526;48.578;-4.520;2023-03-26T13:36:16;100698.53;;;12.30;80.20
76632;BME280;65526;48.578;-4.520;2023-03-26T13:43:57;100723.00;;;12.56;79.02
76632;BME280;65526;48.578;-4.520;2023-03-26T13:46:33;100729.56;;;12.64;79.06
76632;BME280;65526;48.578;-4.520;2023-03-26T13:49:10;100581.69;;;11.87;79.55
76632;BME280;65526;48.578;-4.520;2023-03-26T13:52:02;100743.09;;;13.00;79.13
76632;BME280;65526;48.578;-4.520;2023-03-26T13:57:39;99982.00;;;7.96;77.15
76632;BME280;65526;48.578;-4.520;2023-03-26T14:00:21;100768.06;;;12.93;79.00
76632;BME280;65526;48.578;-4.520;2023-03-26T14:02:59;100528.31;;;11.34;78.86
76632;BME280;65526;48.578;-4.520;2023-03-26T14:05:37;100524.00;;;11.37;77.99
76632;BME280;65526;48.578;-4.520;2023-03-26T14:08:37;100650.72;;;12.48;79.13
76632;BME280;65526;48.578;-4.520;2023-03-26T14:11:15;100648.75;;;12.48;78.29
76632;BME280;65526;48.578;-4.520;2023-03-26T14:16:22;100861.44;;;13.69;78.65
76632;BME280;65526;48.578;-4.520;2023-03-26T14:28:35;100840.88;;;12.88;79.06
76632;BME280;65526;48.578;-4.520;2023-03-26T14:36:17;100874.81;;;12.75;80.24
76632;BME280;65526;48.578;-4.520;2023-03-26T14:41:18;100734.88;;;12.18;80.82
76632;BME280;65526;48.578;-4.520;2023-03-26T14:44:22;100386.84;;;10.11;78.61
76632;BME280;65526;48.578;-4.520;2023-03-26T14:50:04;100893.22;;;13.10;76.90
76632;BME280;65526;48.578;-4.520;2023-03-26T15:24:34;100475.28;;;9.57;79.16
76632;BME280;65526;48.578;-4.520;2023-03-26T15:30:43;100813.88;;;11.55;78.57
76632;BME280;65526;48.578;-4.520;2023-03-26T15:49:18;100652.97;;;10.33;80.24
76632;BME280;65526;48.578;-4.520;2023-03-26T15:52:02;100236.78;;;7.67;79.72
76632;BME280;65526;48.578;-4.520;2023-03-26T15:57:33;100146.91;;;7.16;80.55
76632;BME280;65526;48.578;-4.520;2023-03-26T16:05:48;101028.34;;;12.22;80.91
76632;BME280;65526;48.578;-4.520;2023-03-26T16:08:50;100766.97;;;10.61;81.05
76632;BME280;65526;48.578;-4.520;2023-03-26T16:17:15;101074.00;;;12.06;79.11
76632;BME280;65526;48.578;-4.520;2023-03-26T16:22:54;100590.78;;;8.59;80.69
76632;BME280;65526;48.578;-4.520;2023-03-26T16:25:33;100783.34;;;9.93;81.07
76632;BME280;65526;48.578;-4.520;2023-03-26T16:30:36;100819.44;;;9.93;81.42
76632;BME280;65526;48.578;-4.520;2023-03-26T16:33:14;100589.31;;;8.61;81.00
76632;BME280;65526;48.578;-4.520;2023-03-26T16:36:13;100617.47;;;8.43;81.12
76632;BME280;65526;48.578;-4.520;2023-03-26T16:38:52;101115.06;;;11.60;82.95
76632;BME280;65526;48.578;-4.520;2023-03-26T16:41:26;100621.09;;;8.55;83.33
76632;BME280;65526;48.578;-4.520;2023-03-26T16:46:29;100627.63;;;8.39;83.29
76632;BME280;65526;48.578;-4.520;2023-03-26T16:51:54;101123.78;;;11.59;84.03
76632;BME280;65526;48.578;-4.520;2023-03-26T16:57:26;101135.38;;;11.73;81.83
76632;BME280;65526;48.578;-4.520;2023-03-26T17:05:32;101162.31;;;11.69;81.55
76632;BME280;65526;48.578;-4.520;2023-03-26T17:08:24;101170.66;;;11.69;81.29
76632;BME280;65526;48.578;-4.520;2023-03-26T17:14:05;100932.53;;;9.63;80.88
76632;BME280;65526;48.578;-4.520;2023-03-26T17:16:39;101184.31;;;11.49;81.80
76632;BME280;65526;48.578;-4.520;2023-03-26T17:19:23;100366.25;;;5.97;80.58
76632;BME280;65526;48.578;-4.520;2023-03-26T17:22:12;100435.88;;;6.58;81.16
76632;BME280;65526;48.578;-4.520;2023-03-26T17:24:50;100946.19;;;9.27;81.25
76632;BME280;65526;48.578;-4.520;2023-03-26T17:28:05;101215.78;;;11.17;81.70
76632;BME280;65526;48.578;-4.520;2023-03-26T17:41:08;101318.16;;;11.03;84.12
76632;BME280;65526;48.578;-4.520;2023-03-26T17:43:45;101090.03;;;9.96;84.05
76632;BME280;65526;48.578;-4.520;2023-03-26T17:52:01;101285.31;;;10.96;83.91
76632;BME280;65526;48.578;-4.520;2023-03-26T17:54:37;101307.56;;;10.96;84.03
76632;BME280;65526;48.578;-4.520;2023-03-26T17:57:31;100817.97;;;7.40;83.30
76632;BME280;65526;48.578;-4.520;2023-03-26T18:00:06;101358.16;;;10.90;83.93
76632;BME280;65526;48.578;-4.520;2023-03-26T18:02:40;100789.81;;;7.46;83.75
76632;BME280;65526;48.578;-4.520;2023-03-26T18:05:13;100715.41;;;7.07;83.86
76632;BME280;65526;48.578;-4.520;2023-03-26T18:10:36;100888.84;;;7.70;83.82
76632;BME280;65526;48.578;-4.520;2023-03-26T18:16:05;101365.00;;;10.92;84.85
76632;BME280;65526;48.578;-4.520;2023-03-26T18:20:53;101115.25;;;8.97;84.77
76632;BME280;65526;48.578;-4.520;2023-03-26T18:23:24;100898.47;;;7.73;84.88
76632;BME280;65526;48.578;-4.520;2023-03-26T18:25:56;100587.97;;;5.71;84.64
76632;BME280;65526;48.578;-4.520;2023-03-26T18:28:34;100541.41;;;5.61;84.50
76632;BME280;65526;48.578;-4.520;2023-03-26T18:31:16;100938.81;;;7.65;84.88
76632;BME280;65526;48.578;-4.520;2023-03-26T18:33:47;101285.59;;;10.24;85.17
76632;BME280;65526;48.578;-4.520;2023-03-26T18:36:15;100637.47;;;5.84;84.59
76632;BME280;65526;48.578;-4.520;2023-03-26T18:38:44;100562.34;;;5.70;84.30
76632;BME280;65526;48.578;-4.520;2023-03-26T18:41:18;100640.88;;;5.81;83.66
76632;BME280;65526;48.578;-4.520;2023-03-26T18:43:53;101349.00;;;10.13;83.86
76632;BME280;65526;48.578;-4.520;2023-03-26T18:46:22;101425.44;;;10.83;83.52
76632;BME280;65526;48.578;-4.520;2023-03-26T18:48:49;101421.50;;;10.84;83.60